createdAt,value
2023-04-10T00:00:01.680Z,46.14
2023-04-10T00:02:29.150Z,46.08
2023-04-10T00:04:56.296Z,45.75
2023-04-10T00:07:23.335Z,45.93
2023-04-10T00:09:50.304Z,45.85
2023-04-10T00:12:17.626Z,46.19
2023-04-10T00:14:44.551Z,45.82
2023-04-10T00:17:11.588Z,45.76
2023-04-10T00:19:38.348Z,45.99
2023-04-10T00:22:05.953Z,45.88
2023-04-10T00:24:32.656Z,45.88
2023-04-10T00:26:59.781Z,46.00
2023-04-10T00:29:26.615Z,46.30
2023-04-10T00:31:53.816Z,46.09
2023-04-10T00:34:20.776Z,46.24
2023-04-10T00:36:47.879Z,46.18
2023-04-10T00:39:14.672Z,45.99
2023-04-10T00:41:41.736Z,46.39
2023-04-10T00:44:08.927Z,46.20
2023-04-10T00:46:37.544Z,45.93
2023-04-10T00:49:04.379Z,46.08
2023-04-10T00:51:31.411Z,45.93
2023-04-10T00:53:58.128Z,46.17
2023-04-10T00:56:25.520Z,46.20
2023-04-10T00:58:52.288Z,46.04
2023-04-10T01:01:19.457Z,46.14
2023-04-10T01:03:46.303Z,46.11
2023-04-10T01:06:35.334Z,46.37
2023-04-10T01:09:29.640Z,46.18
2023-04-10T01:11:56.677Z,46.16
2023-04-10T01:14:36.540Z,46.03
2023-04-10T01:17:13.975Z,46.24
2023-04-10T01:20:22.481Z,46.06
2023-04-10T01:23:04.639Z,46.38
2023-04-10T01:25:41.398Z,46.33
2023-04-10T01:28:23.619Z,46.14
2023-04-10T01:30:55.955Z,46.34
2023-04-10T01:33:23.161Z,46.36
2023-04-10T01:35:52.507Z,46.44
2023-04-10T01:38:20.733Z,46.22
2023-04-10T01:40:51.381Z,46.23
2023-04-10T01:43:18.426Z,46.28
2023-04-10T01:45:45.242Z,46.31
2023-04-10T01:48:12.353Z,46.50
2023-04-10T01:50:39.139Z,46.30
2023-04-10T01:53:06.322Z,46.61
2023-04-10T01:55:33.514Z,46.51
2023-04-10T01:58:00.964Z,46.61
2023-04-10T02:00:28.180Z,46.56
2023-04-10T02:02:55.531Z,46.43
2023-04-10T02:05:23.142Z,46.73
2023-04-10T02:07:52.471Z,46.81
2023-04-10T02:10:24.956Z,46.52
2023-04-10T02:13:01.001Z,46.57
2023-04-10T02:15:28.617Z,46.52
2023-04-10T02:17:55.702Z,46.72
2023-04-10T02:20:23.045Z,46.71
2023-04-10T02:22:50.745Z,46.69
2023-04-10T02:25:17.561Z,46.68
2023-04-10T02:27:44.958Z,46.54
2023-04-10T02:30:11.839Z,46.88
2023-04-10T02:32:38.968Z,46.56
2023-04-10T02:35:05.889Z,46.75
2023-04-10T02:37:33.283Z,46.61
2023-04-10T02:40:00.213Z,46.88
2023-04-10T02:42:27.375Z,46.68
2023-04-10T02:44:54.147Z,46.93
2023-04-10T02:47:21.241Z,46.80
2023-04-10T02:49:48.379Z,46.78
2023-04-10T02:52:16.523Z,46.83
2023-04-10T02:54:43.447Z,46.83
2023-04-10T02:57:10.922Z,46.66
2023-04-10T02:59:37.817Z,46.79
2023-04-10T03:02:05.028Z,46.94
2023-04-10T03:04:32.574Z,46.86
2023-04-10T03:06:59.611Z,46.66
2023-04-10T03:09:26.564Z,46.77
2023-04-10T03:11:53.588Z,46.85
2023-04-10T03:14:20.409Z,46.87
2023-04-10T03:16:47.979Z,46.80
2023-04-10T03:19:14.773Z,46.74
2023-04-10T03:21:42.275Z,46.74
2023-04-10T03:24:09.022Z,46.77
2023-04-10T03:26:36.076Z,46.73
2023-04-10T03:29:02.892Z,46.80
2023-04-10T03:31:29.971Z,46.89
2023-04-10T03:33:57.188Z,46.80
2023-04-10T03:36:24.388Z,46.73
2023-04-10T03:38:52.841Z,46.72
2023-04-10T03:41:19.996Z,46.75
2023-04-10T03:43:46.735Z,46.90
2023-04-10T03:46:13.829Z,46.99
2023-04-10T03:48:41.292Z,46.85
2023-04-10T03:51:08.501Z,46.91
2023-04-10T03:53:36.431Z,46.96
2023-04-10T03:56:03.883Z,46.80
2023-04-10T03:58:30.716Z,46.96
2023-04-10T04:00:57.788Z,47.01
2023-04-10T04:03:24.796Z,46.91
2023-04-10T04:05:52.430Z,46.93
2023-04-10T04:08:19.216Z,47.00
2023-04-10T04:10:46.273Z,47.08
2023-04-10T04:13:13.029Z,46.79
2023-04-10T04:15:40.301Z,46.95
2023-04-10T04:18:07.088Z,46.93
2023-04-10T04:20:34.182Z,46.88
2023-04-10T04:23:01.063Z,47.00
2023-04-10T04:25:28.078Z,46.73
2023-04-10T04:27:54.805Z,46.78
2023-04-10T04:30:21.963Z,46.85
2023-04-10T04:32:48.770Z,47.12
2023-04-10T04:35:15.959Z,47.00
2023-04-10T04:37:42.758Z,46.73
2023-04-10T04:40:10.388Z,46.90
2023-04-10T04:42:37.421Z,47.00
2023-04-10T04:45:04.987Z,47.12
2023-04-10T04:47:31.765Z,46.94
2023-04-10T04:49:58.790Z,46.96
2023-04-10T04:52:25.720Z,46.90
2023-04-10T04:54:52.772Z,46.83
2023-04-10T04:57:19.537Z,47.10
2023-04-10T04:59:46.601Z,46.96
2023-04-10T05:02:13.476Z,47.05
2023-04-10T05:04:40.774Z,47.09
2023-04-10T05:07:07.566Z,47.06
2023-04-10T05:09:34.666Z,47.10
2023-04-10T05:12:01.536Z,47.11
2023-04-10T05:14:28.580Z,47.15
2023-04-10T05:16:55.318Z,47.08
2023-04-10T05:19:22.495Z,46.99
2023-04-10T05:21:49.346Z,47.03
2023-04-10T05:24:16.402Z,47.10
2023-04-10T05:26:43.178Z,47.12
2023-04-10T05:29:10.321Z,47.25
2023-04-10T05:31:37.127Z,47.20
2023-04-10T05:34:04.214Z,47.06
2023-04-10T05:36:32.224Z,46.95
2023-04-10T05:38:59.290Z,47.09
2023-04-10T05:41:26.048Z,47.17
2023-04-10T05:43:53.149Z,47.37
2023-04-10T05:46:19.969Z,47.28
2023-04-10T05:48:47.086Z,47.39
2023-04-10T05:51:13.886Z,47.22
2023-04-10T05:53:40.923Z,47.20
2023-04-10T05:56:08.162Z,47.29
2023-04-10T05:58:35.211Z,47.33
2023-04-10T06:01:01.950Z,47.49
2023-04-10T06:03:30.882Z,47.32
2023-04-10T06:05:58.427Z,47.04
2023-04-10T06:08:25.683Z,47.36
2023-04-10T06:10:52.468Z,47.23
2023-04-10T06:13:19.585Z,47.24
2023-04-10T06:15:46.356Z,47.16
2023-04-10T06:18:13.689Z,47.45
2023-04-10T06:20:40.420Z,47.40
2023-04-10T06:23:07.547Z,47.38
2023-04-10T06:25:34.364Z,47.22
2023-04-10T06:28:01.478Z,47.51
2023-04-10T06:30:28.373Z,47.35
2023-04-10T06:32:55.711Z,47.46
2023-04-10T06:35:22.743Z,47.81
2023-04-10T06:37:49.808Z,47.52
2023-04-10T06:40:16.652Z,47.40
2023-04-10T06:42:43.777Z,47.49
2023-04-10T06:45:10.844Z,47.62
2023-04-10T06:47:37.935Z,47.48
2023-04-10T06:50:05.388Z,47.48
2023-04-10T06:52:32.809Z,47.75
2023-04-10T06:54:59.839Z,47.33
2023-04-10T06:57:27.004Z,47.38
2023-04-10T06:59:53.856Z,47.28
2023-04-10T07:02:21.397Z,47.43
2023-04-10T07:04:48.321Z,47.53
2023-04-10T07:07:16.036Z,47.80
2023-04-10T07:09:43.804Z,47.69
2023-04-10T07:12:11.032Z,47.66
2023-04-10T07:14:37.786Z,47.60
2023-04-10T07:17:04.925Z,47.52
2023-04-10T07:19:31.737Z,47.67
2023-04-10T07:21:59.424Z,47.51
2023-04-10T07:24:26.418Z,47.43
2023-04-10T07:26:53.605Z,47.66
2023-04-10T07:29:20.784Z,47.50
2023-04-10T07:31:48.007Z,47.39
2023-04-10T07:34:14.988Z,47.47
2023-04-10T07:36:42.064Z,47.47
2023-04-10T07:39:08.803Z,47.42
2023-04-10T07:41:35.966Z,47.45
2023-04-10T07:44:02.752Z,47.57
2023-04-10T07:46:29.823Z,47.44
2023-04-10T07:48:56.784Z,47.45
2023-04-10T07:51:23.984Z,47.58
2023-04-10T07:53:50.747Z,47.64
2023-04-10T07:56:18.504Z,47.52
2023-04-10T07:58:45.993Z,47.55
2023-04-10T08:01:13.289Z,47.65
2023-04-10T08:03:44.632Z,47.49
2023-04-10T08:06:11.982Z,47.44
2023-04-10T08:08:39.574Z,47.50
2023-04-10T08:11:08.311Z,47.25
2023-04-10T08:13:35.209Z,47.98
2023-04-10T08:16:02.685Z,47.79
2023-04-10T08:18:29.477Z,47.80
2023-04-10T08:20:56.613Z,47.79
2023-04-10T08:23:23.661Z,47.90
2023-04-10T08:25:50.740Z,47.76
2023-04-10T08:28:17.757Z,47.63
2023-04-10T08:30:44.893Z,47.69
2023-04-10T08:33:11.649Z,47.55
2023-04-10T08:35:38.785Z,47.39
2023-04-10T08:38:13.481Z,47.50
2023-04-10T08:40:41.666Z,47.29
2023-04-10T08:43:08.526Z,47.50
2023-04-10T08:45:35.556Z,47.43
2023-04-10T08:48:05.857Z,47.28
2023-04-10T08:50:33.957Z,47.34
2023-04-10T08:53:00.787Z,47.40
2023-04-10T08:55:27.883Z,47.36
2023-04-10T08:58:00.976Z,47.13
2023-04-10T09:00:29.094Z,47.12
2023-04-10T09:02:58.353Z,47.22
2023-04-10T09:05:27.114Z,47.24
2023-04-10T09:07:53.865Z,47.26
2023-04-10T09:10:21.150Z,47.29
2023-04-10T09:12:48.359Z,47.22
2023-04-10T09:15:15.526Z,47.30
2023-04-10T09:18:01.173Z,47.30
2023-04-10T09:20:29.832Z,47.31
2023-04-10T09:22:56.767Z,47.56
2023-04-10T09:25:31.341Z,47.10
2023-04-10T09:28:08.863Z,47.08
2023-04-10T09:30:42.655Z,46.99
2023-04-10T09:33:30.160Z,47.29
2023-04-10T09:35:58.049Z,47.28
2023-04-10T09:38:25.905Z,47.09
2023-04-10T09:40:54.418Z,47.61
2023-04-10T09:43:25.842Z,47.23
2023-04-10T09:45:54.398Z,47.21
2023-04-10T09:48:22.081Z,47.26
2023-04-10T09:50:49.166Z,47.18
2023-04-10T09:53:19.178Z,47.06
2023-04-10T09:55:47.226Z,47.27
2023-04-10T09:58:14.222Z,47.00
2023-04-10T10:00:48.588Z,47.02
2023-04-10T10:03:16.966Z,47.34
2023-04-10T10:05:51.161Z,47.17
2023-04-10T10:08:17.981Z,46.93
2023-04-10T10:10:50.487Z,47.16
2023-04-10T10:13:50.365Z,46.87
2023-04-10T10:16:33.913Z,47.35
2023-04-10T10:19:13.810Z,47.04
2023-04-10T10:21:40.918Z,46.88
2023-04-10T10:24:08.581Z,46.85
2023-04-10T10:26:37.909Z,46.98
2023-04-10T10:29:06.665Z,46.94
2023-04-10T10:31:35.280Z,47.29
2023-04-10T10:34:07.026Z,47.03
2023-04-10T10:36:34.894Z,47.48
2023-04-10T10:39:11.210Z,47.61
2023-04-10T10:41:41.085Z,47.25
2023-04-10T10:44:29.730Z,47.19
2023-04-10T10:47:19.014Z,47.83
2023-04-10T10:49:53.166Z,47.65
2023-04-10T10:52:57.434Z,47.91
2023-04-10T10:55:37.019Z,47.56
2023-04-10T10:58:05.383Z,47.76
2023-04-10T11:00:50.443Z,48.10
2023-04-10T11:03:17.679Z,47.88
2023-04-10T11:05:51.313Z,48.13
2023-04-10T11:08:18.649Z,48.17
2023-04-10T11:11:06.071Z,47.99
2023-04-10T11:13:33.229Z,47.77
2023-04-10T11:16:02.118Z,47.75
2023-04-10T11:18:44.656Z,47.47
2023-04-10T11:21:12.915Z,47.62
2023-04-10T11:24:00.841Z,47.68
2023-04-10T11:26:33.440Z,47.38
2023-04-10T11:29:15.472Z,47.58
2023-04-10T11:31:42.371Z,47.58
2023-04-10T11:34:10.642Z,47.50
2023-04-10T11:36:44.081Z,47.18
2023-04-10T11:39:21.639Z,47.55
2023-04-10T11:41:52.584Z,47.73
2023-04-10T11:44:27.397Z,47.72
2023-04-10T11:46:54.190Z,47.72
2023-04-10T11:49:26.535Z,47.22
2023-04-10T11:51:53.399Z,47.11
2023-04-10T11:54:24.650Z,47.26
2023-04-10T11:57:04.875Z,46.93
2023-04-10T11:59:32.828Z,46.79
2023-04-10T12:02:14.766Z,47.15
2023-04-10T12:04:43.644Z,46.67
2023-04-10T12:07:11.073Z,46.76
2023-04-10T12:09:38.292Z,47.30
2023-04-10T12:12:06.109Z,47.25
2023-04-10T12:14:41.451Z,47.32
2023-04-10T12:17:09.535Z,46.83
2023-04-10T12:19:36.701Z,46.52
2023-04-10T12:22:03.452Z,46.65
2023-04-10T12:24:49.267Z,46.40
2023-04-10T12:27:29.010Z,46.17
2023-04-10T12:29:57.367Z,47.03
2023-04-10T12:32:24.820Z,46.99
2023-04-10T12:34:59.139Z,47.28
2023-04-10T12:37:26.610Z,47.69
2023-04-10T12:39:53.887Z,47.33
2023-04-10T12:42:22.655Z,47.40
2023-04-10T12:44:57.201Z,47.42
2023-04-10T12:47:24.163Z,47.31
2023-04-10T12:50:08.306Z,47.21
2023-04-10T12:52:35.246Z,47.11
2023-04-10T12:55:19.010Z,46.94
2023-04-10T12:57:47.814Z,47.05
2023-04-10T13:00:17.109Z,47.09
2023-04-10T13:02:44.524Z,46.92
2023-04-10T13:05:11.978Z,47.03
2023-04-10T13:07:39.047Z,47.06
2023-04-10T13:10:07.317Z,47.17
2023-04-10T13:12:39.042Z,46.80
2023-04-10T13:15:07.616Z,46.72
2023-04-10T13:17:34.825Z,46.30
2023-04-10T13:20:02.446Z,46.68
2023-04-10T13:22:29.262Z,46.39
2023-04-10T13:24:56.385Z,46.07
2023-04-10T13:27:23.171Z,46.44
2023-04-10T13:29:50.443Z,45.93
2023-04-10T13:32:17.217Z,46.26
2023-04-10T13:34:44.313Z,46.16
2023-04-10T13:37:13.153Z,45.88
2023-04-10T13:39:40.322Z,45.91
2023-04-10T13:42:07.075Z,45.85
2023-04-10T13:44:34.127Z,45.20
2023-04-10T13:47:01.423Z,45.44
2023-04-10T13:49:31.734Z,45.06
2023-04-10T13:51:58.552Z,45.09
2023-04-10T13:54:26.510Z,45.46
2023-04-10T13:56:54.718Z,45.19
2023-04-10T13:59:22.090Z,45.47
2023-04-10T14:01:50.996Z,45.67
2023-04-10T14:04:18.735Z,45.27
2023-04-10T14:06:45.457Z,45.22
2023-04-10T14:09:12.536Z,45.71
2023-04-10T14:11:39.293Z,45.59
2023-04-10T14:14:06.348Z,45.03
2023-04-10T14:16:33.178Z,44.94
2023-04-10T14:19:00.229Z,45.17
2023-04-10T14:21:27.458Z,45.24
2023-04-10T14:23:54.589Z,44.86
2023-04-10T14:26:21.648Z,44.91
2023-04-10T14:28:48.787Z,45.05
2023-04-10T14:31:15.590Z,45.06
2023-04-10T14:33:42.799Z,45.04
2023-04-10T14:36:09.808Z,45.03
2023-04-10T14:38:36.998Z,45.33
2023-04-10T14:41:03.900Z,45.17
2023-04-10T14:43:31.095Z,44.75
2023-04-10T14:45:57.836Z,44.53
2023-04-10T14:48:25.584Z,44.94
2023-04-10T14:50:52.453Z,45.16
2023-04-10T14:53:21.619Z,45.08
2023-04-10T14:55:49.079Z,44.90
2023-04-10T14:58:17.417Z,45.38
2023-04-10T15:00:44.478Z,44.95
2023-04-10T15:03:11.727Z,45.18
2023-04-10T15:05:38.596Z,45.26
2023-04-10T15:08:05.818Z,45.68
2023-04-10T15:10:32.634Z,45.80
2023-04-10T15:12:59.744Z,45.89
2023-04-10T15:15:26.529Z,45.98
2023-04-10T15:17:54.161Z,45.67
2023-04-10T15:20:20.944Z,45.53
2023-04-10T15:22:48.307Z,45.24
2023-04-10T15:25:15.284Z,45.04
2023-04-10T15:27:42.374Z,45.17
2023-04-10T15:30:09.542Z,45.29
2023-04-10T15:32:38.014Z,45.76
2023-04-10T15:35:05.840Z,45.80
2023-04-10T15:37:34.955Z,45.46
2023-04-10T15:40:02.270Z,45.62
2023-04-10T15:42:29.413Z,45.26
2023-04-10T15:44:56.174Z,45.62
2023-04-10T15:47:23.369Z,45.32
2023-04-10T15:49:50.148Z,45.27
2023-04-10T15:52:17.192Z,45.20
2023-04-10T15:54:44.004Z,45.60
2023-04-10T15:57:11.040Z,45.16
2023-04-10T15:59:37.791Z,45.29
2023-04-10T16:02:04.976Z,45.46
2023-04-10T16:04:32.002Z,45.31
2023-04-10T16:06:59.260Z,45.54
2023-04-10T16:09:26.830Z,45.47
2023-04-10T16:11:54.759Z,45.17
2023-04-10T16:14:22.514Z,45.28
2023-04-10T16:16:49.957Z,45.38
2023-04-10T16:19:16.857Z,45.34
2023-04-10T16:21:43.919Z,45.71
2023-04-10T16:24:10.737Z,45.86
2023-04-10T16:26:37.800Z,45.61
2023-04-10T16:29:04.609Z,45.87
2023-04-10T16:31:31.742Z,45.85
2023-04-10T16:33:58.612Z,45.59
2023-04-10T16:36:27.093Z,45.97
2023-04-10T16:38:54.097Z,45.92
2023-04-10T16:41:21.573Z,45.78
2023-04-10T16:43:48.486Z,45.99
2023-04-10T16:46:15.701Z,46.34
2023-04-10T16:48:42.475Z,46.15
2023-04-10T16:51:16.763Z,46.27
2023-04-10T16:53:43.608Z,46.22
2023-04-10T16:56:10.838Z,46.12
2023-04-10T16:58:38.163Z,46.01
2023-04-10T17:01:19.405Z,45.96
2023-04-10T17:03:47.511Z,46.25
2023-04-10T17:06:15.983Z,46.00
2023-04-10T17:08:43.205Z,45.99
2023-04-10T17:11:12.501Z,46.17
2023-04-10T17:13:40.481Z,46.49
2023-04-10T17:16:08.287Z,46.19
2023-04-10T17:18:35.515Z,46.16
2023-04-10T17:21:02.641Z,46.27
2023-04-10T17:23:29.847Z,46.66
2023-04-10T17:25:56.995Z,46.53
2023-04-10T17:28:23.832Z,46.55
2023-04-10T17:30:50.971Z,46.79
2023-04-10T17:33:17.800Z,46.67
2023-04-10T17:35:44.884Z,46.90
2023-04-10T17:38:11.723Z,46.78
2023-04-10T17:40:40.991Z,46.57
2023-04-10T17:43:08.201Z,46.92
2023-04-10T17:45:38.765Z,46.75
2023-04-10T17:48:06.220Z,46.82
2023-04-10T17:50:33.456Z,46.65
2023-04-10T17:53:00.717Z,46.72
2023-04-10T17:55:27.940Z,46.70
2023-04-10T17:57:56.922Z,46.88
2023-04-10T18:00:24.320Z,46.64
2023-04-10T18:02:53.077Z,46.90
2023-04-10T18:05:20.475Z,46.59
2023-04-10T18:07:47.463Z,46.68
2023-04-10T18:10:14.580Z,47.01
2023-04-10T18:12:41.419Z,46.32
2023-04-10T18:15:09.430Z,46.76
2023-04-10T18:17:38.799Z,46.38
2023-04-10T18:20:09.994Z,46.80
2023-04-10T18:22:36.784Z,46.55
2023-04-10T18:25:05.326Z,46.48
2023-04-10T18:27:34.435Z,46.32
2023-04-10T18:30:01.626Z,46.25
2023-04-10T18:32:28.450Z,46.60
2023-04-10T18:34:55.813Z,46.88
2023-04-10T18:37:22.644Z,47.11
2023-04-10T18:39:49.827Z,47.09
2023-04-10T18:42:16.602Z,46.68
2023-04-10T18:44:43.643Z,46.95
2023-04-10T18:47:11.301Z,46.73
2023-04-10T18:49:38.532Z,46.82
2023-04-10T18:52:05.445Z,47.02
2023-04-10T18:54:33.870Z,47.02
2023-04-10T18:57:01.025Z,46.72
2023-04-10T18:59:28.412Z,46.95
2023-04-10T19:01:55.779Z,46.91
2023-04-10T19:04:23.155Z,46.91
2023-04-10T19:06:50.282Z,46.66
2023-04-10T19:09:17.716Z,46.62
2023-04-10T19:11:44.699Z,46.92
2023-04-10T19:14:12.247Z,46.99
2023-04-10T19:16:39.423Z,46.91
2023-04-10T19:19:07.672Z,46.82
2023-04-10T19:21:34.650Z,46.92
2023-04-10T19:24:01.967Z,47.03
2023-04-10T19:26:28.919Z,47.09
2023-04-10T19:28:55.972Z,47.04
2023-04-10T19:31:24.007Z,47.19
2023-04-10T19:33:51.217Z,47.12
2023-04-10T19:36:18.619Z,46.91
2023-04-10T19:38:49.003Z,46.77
2023-04-10T19:41:16.401Z,47.24
2023-04-10T19:43:43.778Z,47.00
2023-04-10T19:46:18.511Z,47.18
2023-04-10T19:48:45.903Z,47.16
2023-04-10T19:51:13.482Z,47.06
2023-04-10T19:53:41.041Z,47.21
2023-04-10T19:56:08.332Z,47.37
2023-04-10T19:58:39.989Z,47.47
2023-04-10T20:01:12.284Z,47.34
2023-04-10T20:03:39.584Z,47.34
2023-04-10T20:06:07.701Z,47.37
2023-04-10T20:08:34.916Z,47.11
2023-04-10T20:11:05.842Z,47.11
2023-04-10T20:13:33.871Z,47.01
2023-04-10T20:16:01.073Z,47.17
2023-04-10T20:18:27.920Z,47.23
2023-04-10T20:20:55.076Z,47.34
2023-04-10T20:23:21.902Z,47.08
2023-04-10T20:25:49.126Z,47.27
2023-04-10T20:28:16.884Z,47.08
2023-04-10T20:30:44.193Z,47.16
2023-04-10T20:33:11.151Z,47.22
2023-04-10T20:35:38.756Z,47.46
2023-04-10T20:38:05.793Z,47.40
2023-04-10T20:40:32.925Z,47.43
2023-04-10T20:42:59.797Z,47.42
2023-04-10T20:45:27.044Z,47.39
2023-04-10T20:47:54.052Z,47.56
2023-04-10T20:50:21.386Z,47.35
2023-04-10T20:52:48.472Z,47.15
2023-04-10T20:55:15.848Z,47.33
2023-04-10T20:57:42.649Z,47.40
2023-04-10T21:00:11.245Z,47.31
2023-04-10T21:02:38.259Z,47.29
2023-04-10T21:05:05.658Z,47.55
2023-04-10T21:07:32.515Z,47.65
2023-04-10T21:09:59.543Z,47.49
2023-04-10T21:12:26.532Z,47.07
2023-04-10T21:14:53.624Z,47.53
2023-04-10T21:17:20.547Z,47.30
2023-04-10T21:19:47.745Z,47.55
2023-04-10T21:22:14.778Z,47.51
2023-04-10T21:24:41.927Z,47.63
2023-04-10T21:27:08.834Z,47.51
2023-04-10T21:29:35.949Z,47.60
2023-04-10T21:32:02.820Z,47.61
2023-04-10T21:34:30.565Z,47.70
2023-04-10T21:36:57.394Z,47.46
2023-04-10T21:39:24.511Z,47.49
2023-04-10T21:41:51.348Z,47.72
2023-04-10T21:44:18.495Z,47.63
2023-04-10T21:46:45.231Z,47.76
2023-04-10T21:49:12.375Z,47.66
2023-04-10T21:51:40.765Z,47.74
2023-04-10T21:54:07.964Z,47.55
2023-04-10T21:56:38.848Z,47.59
2023-04-10T21:59:05.940Z,47.68
2023-04-10T22:01:33.946Z,47.69
2023-04-10T22:04:01.281Z,47.81
2023-04-10T22:06:28.176Z,47.69
2023-04-10T22:08:55.432Z,47.81
2023-04-10T22:11:22.419Z,47.49
2023-04-10T22:13:49.539Z,47.91
2023-04-10T22:16:16.512Z,47.76
2023-04-10T22:18:43.631Z,47.72
2023-04-10T22:21:10.450Z,47.64
2023-04-10T22:23:37.559Z,47.71
2023-04-10T22:26:04.445Z,47.78
2023-04-10T22:28:31.547Z,47.43
2023-04-10T22:30:58.324Z,47.94
2023-04-10T22:33:25.481Z,47.80
2023-04-10T22:35:53.649Z,47.85
2023-04-10T22:38:20.826Z,47.79
2023-04-10T22:40:47.689Z,47.71
2023-04-10T22:43:14.849Z,47.59
2023-04-10T22:45:41.889Z,47.64
2023-04-10T22:48:09.209Z,47.88
2023-04-10T22:50:36.438Z,47.64
2023-04-10T22:53:03.861Z,47.72
2023-04-10T22:55:30.796Z,47.40
2023-04-10T22:57:57.910Z,47.51
2023-04-10T23:00:24.909Z,47.62
2023-04-10T23:02:52.030Z,47.82
2023-04-10T23:05:18.917Z,47.69
2023-04-10T23:07:45.985Z,47.66
2023-04-10T23:10:12.768Z,47.69
2023-04-10T23:12:43.436Z,47.58
2023-04-10T23:15:10.803Z,47.70
2023-04-10T23:17:38.051Z,47.77
2023-04-10T23:20:05.396Z,47.79
2023-04-10T23:22:32.468Z,47.94
2023-04-10T23:24:59.453Z,47.84
2023-04-10T23:27:26.903Z,48.00
2023-04-10T23:29:53.917Z,47.90
2023-04-10T23:32:20.944Z,47.86
2023-04-10T23:34:47.708Z,48.00
2023-04-10T23:37:14.887Z,48.07
2023-04-10T23:39:41.724Z,47.84
2023-04-10T23:42:08.772Z,47.77
2023-04-10T23:44:35.776Z,47.89
2023-04-10T23:47:03.265Z,48.16
2023-04-10T23:49:30.321Z,48.10
2023-04-10T23:51:57.348Z,47.70
2023-04-10T23:54:24.093Z,47.88
2023-04-10T23:56:51.236Z,47.91
2023-04-10T23:59:19.135Z,47.89
